Time;durP1;ratioP1;P1;durP2;ratioP2;P2;SDS_P1;SDS_P2;PMS_P1;PMS_P2;Temp;Humidity;BMP_temperature;BMP_pressure;BME280_temperature;BME280_humidity;BME280_pressure;Samples;Min_cycle;Max_cycle;Signal;HPM_P1;HPM_P2
2021/12/08 00:01:19;;;;;;;67.25;26.52;;;;;;;1.67;83.77;100149.09;5040926;28;20108;-66
2021/12/08 00:03:45;;;;;;;67.15;26.45;;;;;;;1.96;82.84;100144.00;5049299;28;20118;-66
2021/12/08 00:06:12;;;;;;;63.33;25.50;;;;;;;1.96;82.46;100128.50;5049004;28;20099;-66
2021/12/08 00:08:39;;;;;;;61.63;25.33;;;;;;;1.80;82.92;100142.72;5047195;28;20048;-66
2021/12/08 00:13:52;;;;;;;67.00;26.20;;;;;;;1.63;84.27;100129.38;5048174;28;20114;-66
2021/12/08 00:16:18;;;;;;;59.15;24.98;;;;;;;1.65;84.26;100122.44;5049337;28;20064;-66
2021/12/08 00:18:47;;;;;;;65.10;26.75;;;;;;;1.55;84.52;100110.66;5049860;28;20206;-66
2021/12/08 00:21:16;;;;;;;65.97;25.45;;;;;;;1.27;85.79;100099.28;5033253;28;20072;-66
2021/12/08 00:23:43;;;;;;;59.65;25.15;;;;;;;1.11;87.03;100095.38;5042978;28;20045;-65
2021/12/08 00:26:10;;;;;;;65.80;25.42;;;;;;;1.19;86.57;100096.03;5039627;28;20103;-66
2021/12/08 00:28:36;;;;;;;56.90;25.17;;;;;;;1.46;85.48;100092.78;5037840;28;20045;-66
2021/12/08 00:31:06;;;;;;;54.42;22.77;;;;;;;1.41;85.36;100092.03;5049051;28;20044;-66
2021/12/08 00:33:35;;;;;;;61.65;25.40;;;;;;;1.44;85.85;100077.31;5048926;28;20057;-66
2021/12/08 00:36:04;;;;;;;63.10;25.27;;;;;;;1.59;85.08;100076.06;5048889;28;20095;-66
2021/12/08 00:38:31;;;;;;;63.80;24.85;;;;;;;1.68;84.18;100069.81;5048503;28;20128;-66
2021/12/08 00:40:59;;;;;;;68.32;24.65;;;;;;;1.31;85.98;100059.56;5049030;28;20466;-66
2021/12/08 00:43:26;;;;;;;74.80;27.52;;;;;;;1.63;84.70;100066.50;5047232;28;20057;-66
2021/12/08 00:45:53;;;;;;;62.83;26.25;;;;;;;1.52;84.99;100059.03;5048522;28;20056;-66
2021/12/08 00:48:22;;;;;;;58.33;25.15;;;;;;;1.39;86.07;100042.16;5051439;28;20083;-66
2021/12/08 00:50:49;;;;;;;53.72;22.92;;;;;;;1.44;85.62;100035.16;5030955;28;20107;-66
2021/12/08 00:53:16;;;;;;;57.70;23.65;;;;;;;1.63;84.66;100028.59;5038463;28;20041;-66
2021/12/08 00:55:42;;;;;;;57.50;24.42;;;;;;;1.48;85.03;100026.41;5049988;28;20059;-66
2021/12/08 00:58:09;;;;;;;55.22;22.00;;;;;;;1.24;86.57;100024.47;5033973;28;20572;-65
2021/12/08 01:00:38;;;;;;;53.05;23.80;;;;;;;1.38;85.52;100019.78;5045304;28;20073;-65
2021/12/08 01:03:05;;;;;;;52.22;22.63;;;;;;;1.54;84.90;100015.94;5047766;28;20119;-66
2021/12/08 01:05:36;;;;;;;59.13;24.40;;;;;;;1.46;85.90;100002.38;5045177;28;20044;-66
2021/12/08 01:08:04;;;;;;;61.25;23.67;;;;;;;1.43;85.96;99994.69;5037126;28;20049;-66
2021/12/08 01:10:30;;;;;;;55.80;23.92;;;;;;;1.37;86.21;99995.69;5048242;28;20126;-66
2021/12/08 01:12:58;;;;;;;58.10;23.90;;;;;;;1.43;86.03;99986.94;5047125;28;20538;-66
2021/12/08 01:15:26;;;;;;;51.53;22.00;;;;;;;1.39;85.90;99975.00;5047786;28;20053;-66
2021/12/08 01:17:53;;;;;;;40.72;18.92;;;;;;;1.59;85.09;99966.72;5047602;28;20037;-66
2021/12/08 01:20:20;;;;;;;52.28;21.65;;;;;;;1.77;84.22;99946.38;5043130;28;20068;-67
2021/12/08 01:22:48;;;;;;;47.03;22.95;;;;;;;1.77;84.01;99945.53;5031071;28;20099;-66
2021/12/08 01:25:15;;;;;;;58.15;23.75;;;;;;;1.62;84.23;99946.81;5038054;28;20077;-66
2021/12/08 01:27:42;;;;;;;57.03;23.08;;;;;;;1.59;84.50;99946.06;5045235;28;20045;-66
2021/12/08 01:30:09;;;;;;;52.50;21.33;;;;;;;1.36;85.22;99926.00;5049713;28;20087;-66
2021/12/08 01:32:36;;;;;;;53.90;22.50;;;;;;;1.14;86.76;99920.59;5053794;28;20130;-66
2021/12/08 01:35:04;;;;;;;57.25;22.92;;;;;;;1.21;86.14;99918.69;5059627;28;20125;-66
2021/12/08 01:37:31;;;;;;;63.20;23.42;;;;;;;1.60;84.92;99921.88;5042952;28;20425;-66
2021/12/08 01:39:59;;;;;;;69.60;24.63;;;;;;;1.38;85.42;99926.81;5048656;28;20094;-66
2021/12/08 01:42:31;;;;;;;55.15;22.33;;;;;;;1.44;84.78;99927.47;5059498;28;20059;-66
2021/12/08 01:47:41;;;;;;;56.92;23.60;;;;;;;1.54;84.38;99942.75;5048914;28;20056;-66
2021/12/08 01:50:10;;;;;;;59.40;24.48;;;;;;;2.05;82.45;99940.41;5051931;28;20061;-66
2021/12/08 01:52:37;;;;;;;69.50;23.83;;;;;;;2.12;81.67;99941.91;5048673;28;20045;-66
2021/12/08 01:55:07;;;;;;;53.60;20.30;;;;;;;1.46;83.90;99959.31;5049305;28;20500;-66
2021/12/08 01:57:33;;;;;;;54.83;23.63;;;;;;;1.99;82.63;99961.28;5048956;28;20512;-66
2021/12/08 01:59:59;;;;;;;64.65;24.00;;;;;;;1.96;82.46;99975.97;5048816;28;20409;-66
2021/12/08 02:02:26;;;;;;;60.38;24.58;;;;;;;1.67;83.63;99975.94;5032043;28;20060;-66
2021/12/08 02:04:53;;;;;;;60.13;23.27;;;;;;;1.64;83.66;99981.19;5048952;28;20064;-66
2021/12/08 02:07:19;;;;;;;61.38;23.33;;;;;;;1.73;83.33;99980.09;5044751;28;20072;-66
2021/12/08 02:09:46;;;;;;;57.83;22.60;;;;;;;1.92;82.52;99970.94;5048945;28;20045;-66
2021/12/08 02:12:13;;;;;;;59.70;24.55;;;;;;;1.99;81.61;99961.28;5046464;28;20053;-66
2021/12/08 02:14:40;;;;;;;58.65;22.50;;;;;;;1.76;82.62;99974.84;5047632;28;20106;-66
2021/12/08 02:17:10;;;;;;;62.80;25.55;;;;;;;1.94;81.78;99958.81;5047975;28;20052;-66
2021/12/08 02:19:37;;;;;;;67.80;24.52;;;;;;;1.88;81.93;99954.69;5042504;28;20046;-66
2021/12/08 02:22:05;;;;;;;57.25;22.23;;;;;;;1.43;83.54;99961.97;5033280;28;20110;-66
2021/12/08 02:24:31;;;;;;;68.18;25.98;;;;;;;1.48;83.84;99964.41;5047190;28;20069;-66
2021/12/08 02:26:58;;;;;;;66.82;24.52;;;;;;;1.40;84.06;99966.38;5050450;28;20041;-66
2021/12/08 02:29:34;;;;;;;65.82;25.52;;;;;;;1.37;83.95;99962.13;5040265;28;20040;-66
2021/12/08 02:32:07;;;;;;;71.43;26.58;;;;;;;1.42;83.76;99960.28;5049141;28;20040;-66
2021/12/08 02:48:27;;;;;;;73.15;28.48;;;;;;;1.28;83.95;99943.44;5051622;28;20150;-66
2021/12/08 02:50:53;;;;;;;70.97;27.52;;;;;;;1.11;84.52;99932.72;5048409;28;20099;-66
2021/12/08 02:53:21;;;;;;;69.35;28.00;;;;;;;1.10;84.16;99933.59;5048326;28;20099;-66
2021/12/08 02:55:48;;;;;;;71.70;24.17;;;;;;;1.01;84.67;99920.91;5044329;28;20041;-66
2021/12/08 02:58:16;;;;;;;57.45;19.30;;;;;;;1.10;83.97;99925.84;5047939;28;20532;-66
2021/12/08 03:00:45;;;;;;;75.70;25.98;;;;;;;1.30;83.47;99918.41;5048507;28;20045;-66
2021/12/08 03:03:12;;;;;;;69.93;25.67;;;;;;;0.90;84.62;99909.16;5048003;28;20045;-66
2021/12/08 03:05:38;;;;;;;80.68;29.15;;;;;;;1.08;84.71;99906.97;5048282;28;20065;-66
2021/12/08 03:08:07;;;;;;;76.10;28.17;;;;;;;1.17;84.42;99901.56;5048028;28;20041;-66
2021/12/08 03:10:41;;;;;;;81.93;27.83;;;;;;;1.25;83.36;99890.16;5048254;28;20040;-66
2021/12/08 03:13:07;;;;;;;77.57;25.10;;;;;;;1.33;82.65;99897.69;5048264;28;20076;-66
2021/12/08 03:15:34;;;;;;;78.90;28.05;;;;;;;1.52;82.02;99885.94;5047255;28;20064;-66
2021/12/08 03:18:00;;;;;;;77.63;27.63;;;;;;;1.31;83.01;99892.56;5049723;28;20461;-66
2021/12/08 03:20:38;;;;;;;78.93;26.63;;;;;;;1.33;82.93;99889.94;5049559;28;20102;-66
2021/12/08 03:23:05;;;;;;;78.30;27.50;;;;;;;1.52;82.53;99888.50;5031891;28;20061;-66
2021/12/08 03:25:36;;;;;;;84.72;28.58;;;;;;;1.67;81.75;99879.47;5031832;28;20041;-66
2021/12/08 03:28:10;;;;;;;73.55;25.50;;;;;;;1.51;82.19;99881.69;5039290;28;20060;-66
2021/12/08 03:30:41;;;;;;;78.75;28.40;;;;;;;1.38;82.57;99890.66;5041451;28;20615;-66
2021/12/08 03:33:09;;;;;;;52.20;21.33;;;;;;;0.99;83.85;99890.00;5048433;28;20071;-66
2021/12/08 03:35:35;;;;;;;63.47;27.17;;;;;;;0.88;84.44;99871.38;5051726;28;20140;-66
2021/12/08 03:38:02;;;;;;;79.43;28.00;;;;;;;1.01;84.50;99874.47;5052001;28;20068;-66
2021/12/08 03:40:29;;;;;;;72.07;23.67;;;;;;;0.91;84.63;99864.41;5043501;28;20044;-66
2021/12/08 03:42:58;;;;;;;82.75;29.67;;;;;;;0.88;84.53;99871.38;5047748;28;20050;-66
2021/12/08 03:45:29;;;;;;;72.63;27.33;;;;;;;0.77;85.36;99861.34;5030683;28;20048;-66
2021/12/08 03:48:01;;;;;;;77.32;27.38;;;;;;;0.79;85.47;99862.13;5050810;28;20425;-66
2021/12/08 03:50:29;;;;;;;63.97;23.50;;;;;;;0.80;84.86;99860.41;5051579;28;20057;-66
2021/12/08 03:52:56;;;;;;;69.40;25.05;;;;;;;0.89;84.54;99870.47;5051247;28;20071;-66
2021/12/08 03:55:23;;;;;;;67.03;24.52;;;;;;;0.58;86.12;99849.78;5037534;28;20558;-66
2021/12/08 03:57:49;;;;;;;71.40;27.30;;;;;;;0.69;85.80;99852.09;5027955;28;20049;-66
2021/12/08 04:00:18;;;;;;;72.90;24.90;;;;;;;0.83;84.81;99856.00;5041111;28;20130;-66
2021/12/08 04:02:47;;;;;;;79.13;27.67;;;;;;;0.88;84.93;99859.31;5035035;28;20490;-66
2021/12/08 04:05:18;;;;;;;72.13;27.40;;;;;;;0.83;84.84;99858.59;5041333;28;20044;-66
2021/12/08 04:07:45;;;;;;;77.30;27.88;;;;;;;1.01;84.06;99867.56;5050461;28;20049;-66
2021/12/08 04:10:17;;;;;;;74.28;27.48;;;;;;;0.88;84.39;99863.63;5050647;28;20497;-66
2021/12/08 04:12:46;;;;;;;69.18;27.10;;;;;;;1.00;84.07;99863.28;5050822;28;20513;-66
2021/12/08 04:15:13;;;;;;;73.35;26.55;;;;;;;0.70;85.64;99870.09;5057794;28;20114;-66
2021/12/08 04:17:44;;;;;;;58.83;25.33;;;;;;;0.51;85.96;99874.03;5058734;28;20045;-66
2021/12/08 04:20:16;;;;;;;77.45;27.70;;;;;;;0.65;85.90;99873.69;5050874;28;20477;-65
2021/12/08 04:22:46;;;;;;;75.35;27.95;;;;;;;0.71;85.46;99879.53;5050730;28;20073;-66
2021/12/08 04:25:17;;;;;;;75.50;27.63;;;;;;;0.88;84.63;99874.81;5039075;28;20064;-66
2021/12/08 04:27:45;;;;;;;47.67;21.13;;;;;;;0.74;85.02;99870.88;5041888;28;20050;-66
2021/12/08 04:30:14;;;;;;;53.55;20.92;;;;;;;0.70;85.43;99877.00;5064294;28;20281;-66
2021/12/08 04:32:41;;;;;;;69.72;26.52;;;;;;;0.75;85.07;99870.81;5061115;28;20045;-66
2021/12/08 04:35:10;;;;;;;76.30;28.33;;;;;;;0.73;85.05;99870.03;5050006;28;20103;-66
2021/12/08 04:37:47;;;;;;;74.90;27.17;;;;;;;0.66;85.69;99865.91;5049575;28;20504;-66
2021/12/08 04:40:23;;;;;;;65.25;26.88;;;;;;;0.82;84.77;99869.78;5050246;28;20102;-66
2021/12/08 04:43:01;;;;;;;61.03;20.42;;;;;;;0.64;85.51;99870.25;5038940;28;20489;-66
2021/12/08 04:45:37;;;;;;;71.22;28.40;;;;;;;0.81;85.22;99852.59;5049006;28;20408;-66
2021/12/08 04:48:19;;;;;;;64.43;25.00;;;;;;;1.01;84.17;99853.81;5049988;28;20408;-66
2021/12/08 04:53:46;;;;;;;74.28;26.00;;;;;;;0.98;84.37;99852.16;5038278;28;20179;-66
2021/12/08 05:02:15;;;;;;;49.72;20.67;;;;;;;0.73;84.84;99838.22;5049769;28;20041;-66
2021/12/08 05:04:53;;;;;;;66.55;25.05;;;;;;;0.77;85.07;99839.84;5049861;28;20052;-66
2021/12/08 05:07:33;;;;;;;66.35;23.60;;;;;;;1.06;83.37;99844.22;5051174;28;20128;-66
2021/12/08 05:10:05;;;;;;;58.80;23.55;;;;;;;0.82;84.30;99838.81;5049824;28;20128;-66
2021/12/08 05:12:35;;;;;;;57.97;21.50;;;;;;;1.02;83.34;99850.34;5052468;28;20063;-66
2021/12/08 05:15:08;;;;;;;61.08;22.13;;;;;;;1.08;83.45;99845.00;5035191;28;20096;-65
2021/12/08 05:17:38;;;;;;;62.50;21.83;;;;;;;0.91;83.85;99848.91;5063857;28;20377;-65
2021/12/08 05:20:11;;;;;;;59.90;21.77;;;;;;;0.98;83.80;99844.41;5052632;28;20075;-66
2021/12/08 05:22:43;;;;;;;58.70;22.08;;;;;;;1.01;83.72;99853.81;5060732;28;20041;-66
2021/12/08 05:25:17;;;;;;;59.20;24.45;;;;;;;1.11;83.27;99850.13;5050536;28;20044;-65
2021/12/08 05:27:47;;;;;;;64.88;24.23;;;;;;;1.24;82.53;99843.69;5048555;28;20099;-65
2021/12/08 05:30:18;;;;;;;74.53;27.42;;;;;;;1.15;82.85;99857.72;5060978;28;20121;-65
2021/12/08 05:32:44;;;;;;;;;;;;;;;1.36;82.37;99858.88;5061511;28;20045;-65
2021/12/08 05:35:14;;;;;;;64.28;24.77;;;;;;;1.38;82.32;99854.50;5061579;28;19959;-65
2021/12/08 05:37:41;;;;;;;60.40;24.27;;;;;;;1.36;82.21;99864.03;5068809;28;20080;-66
2021/12/08 05:40:13;;;;;;;61.75;24.75;;;;;;;1.21;82.56;99867.88;5069348;28;20068;-66
2021/12/08 05:42:39;;;;;;;79.30;25.92;;;;;;;1.09;83.01;99862.19;5047794;28;20098;-66
2021/12/08 05:45:09;;;;;;;70.35;25.08;;;;;;;1.05;83.21;99878.66;5048315;28;20099;-66
2021/12/08 05:47:35;;;;;;;72.38;25.17;;;;;;;1.14;83.02;99881.00;5048562;28;20041;-66
2021/12/08 05:50:04;;;;;;;60.75;23.13;;;;;;;1.06;83.29;99883.78;5046886;28;20114;-66
2021/12/08 05:52:30;;;;;;;77.20;29.92;;;;;;;1.04;83.45;99875.22;5058620;28;20044;-66
2021/12/08 05:54:57;;;;;;;80.03;26.52;;;;;;;1.07;83.72;99880.34;5039505;28;20041;-66
2021/12/08 05:57:29;;;;;;;70.32;25.05;;;;;;;1.23;83.12;99885.91;5033847;28;20069;-66
2021/12/08 05:59:56;;;;;;;61.03;25.33;;;;;;;1.08;83.24;99889.75;5044195;28;20087;-66
2021/12/08 06:02:25;;;;;;;74.70;26.52;;;;;;;1.09;83.73;99881.13;5048746;28;20142;-66
2021/12/08 06:04:52;;;;;;;72.53;26.88;;;;;;;1.29;83.26;99889.19;5048129;28;20118;-65
2021/12/08 06:07:21;;;;;;;82.55;28.92;;;;;;;1.36;82.73;99887.28;5048511;28;20068;-65
2021/12/08 06:09:48;;;;;;;72.45;27.15;;;;;;;1.29;83.00;99880.59;5047887;28;20051;-65
2021/12/08 06:12:15;;;;;;;75.85;26.92;;;;;;;1.48;82.54;99878.34;5048902;28;20494;-65
2021/12/08 06:14:43;;;;;;;81.47;30.45;;;;;;;1.31;82.56;99878.78;5047624;28;20045;-65
2021/12/08 06:17:18;;;;;;;79.38;27.50;;;;;;;1.24;82.96;99882.44;5048441;28;20045;-66
2021/12/08 06:19:48;;;;;;;63.58;24.58;;;;;;;0.98;83.97;99901.22;5048762;28;20048;-66
2021/12/08 06:22:16;;;;;;;75.07;28.67;;;;;;;1.01;84.22;99897.69;5048551;28;20041;-66
2021/12/08 06:24:44;;;;;;;71.80;25.50;;;;;;;1.17;83.52;99896.41;5039629;28;20575;-66
2021/12/08 06:27:10;;;;;;;77.55;30.90;;;;;;;1.10;83.60;99892.31;5038158;28;20515;-66
2021/12/08 06:29:37;;;;;;;84.60;28.85;;;;;;;1.18;83.38;99898.09;5036778;28;20095;-66
2021/12/08 06:32:08;;;;;;;73.00;26.80;;;;;;;1.37;82.41;99901.84;5048756;28;20064;-66
2021/12/08 06:34:37;;;;;;;71.65;26.02;;;;;;;1.58;81.62;99888.38;5047650;28;20099;-66
2021/12/08 06:37:08;;;;;;;74.03;27.48;;;;;;;1.59;81.28;99912.47;5048550;28;20073;-66
2021/12/08 06:39:39;;;;;;;73.00;26.65;;;;;;;1.70;81.30;99911.25;5045291;28;20485;-66
2021/12/08 06:42:08;;;;;;;;;;;;;;;1.78;80.96;99904.13;5049076;28;20049;-66
2021/12/08 06:44:40;;;;;;;76.47;30.10;;;;;;;1.35;82.21;99906.22;5047858;28;19965;-65
2021/12/08 06:47:16;;;;;;;67.93;26.45;;;;;;;1.53;81.99;99905.72;5049127;28;20037;-64
2021/12/08 06:49:45;;;;;;;82.68;29.50;;;;;;;1.52;82.02;99903.16;5035087;28;20046;-64
2021/12/08 06:52:17;;;;;;;72.88;27.85;;;;;;;1.40;82.97;99902.63;5048272;28;20047;-64
2021/12/08 06:54:55;;;;;;;72.28;26.02;;;;;;;1.36;82.77;99906.22;5049862;28;20061;-64
2021/12/08 06:57:25;;;;;;;79.95;29.50;;;;;;;1.32;83.04;99917.50;5049828;28;20049;-64
2021/12/08 06:59:58;;;;;;;80.07;30.60;;;;;;;1.19;84.02;99904.94;5054758;28;20041;-64
2021/12/08 07:05:26;;;;;;;80.63;30.23;;;;;;;1.10;84.39;99900.03;5058258;28;20121;-64
2021/12/08 07:07:54;;;;;;;49.33;18.55;;;;;;;1.01;84.48;99915.75;5071798;28;20044;-64
2021/12/08 07:10:25;;;;;;;70.30;24.58;;;;;;;1.07;84.65;99907.88;5072359;28;20076;-64
2021/12/08 07:12:55;;;;;;;88.63;33.78;;;;;;;0.86;85.52;99904.09;5052472;28;20099;-64
2021/12/08 07:15:26;;;;;;;87.65;31.17;;;;;;;1.04;85.23;99916.53;5050953;28;20134;-64
2021/12/08 07:17:57;;;;;;;;;;;;;;;1.06;85.50;99903.59;5047699;28;20578;-64
2021/12/08 07:20:41;;;;;;;71.25;28.30;;;;;;;0.97;85.48;99909.81;5031896;28;19943;-63
2021/12/08 07:23:10;;;;;;;82.00;30.08;;;;;;;0.86;86.31;99909.25;5041519;28;20047;-63
2021/12/08 07:25:37;;;;;;;85.55;32.05;;;;;;;1.12;85.26;99911.16;5039304;28;20044;-63
2021/12/08 07:28:05;;;;;;;84.53;28.67;;;;;;;1.23;84.54;99903.97;5051860;28;20140;-63
2021/12/08 07:30:35;;;;;;;89.22;31.67;;;;;;;1.15;85.00;99898.16;5051937;28;20044;-63
2021/12/08 07:33:04;;;;;;;88.28;32.85;;;;;;;1.41;83.76;99901.75;5051644;28;20040;-63
2021/12/08 07:35:37;;;;;;;86.68;32.88;;;;;;;1.06;85.04;99901.84;5051654;28;20574;-63
2021/12/08 07:38:05;;;;;;;84.25;32.42;;;;;;;1.00;85.84;99899.41;5051604;28;20043;-63
2021/12/08 07:40:36;;;;;;;86.38;32.40;;;;;;;0.88;86.07;99898.03;5051641;28;20040;-64
2021/12/08 07:43:07;;;;;;;90.93;31.92;;;;;;;1.04;85.66;99890.72;5043487;28;20102;-64
2021/12/08 07:45:37;;;;;;;87.28;32.60;;;;;;;0.79;86.39;99898.25;5049571;28;20727;-63
2021/12/08 07:48:08;;;;;;;84.43;31.10;;;;;;;0.77;86.75;99886.28;5050786;28;20041;-63
2021/12/08 07:50:40;;;;;;;94.20;31.85;;;;;;;1.39;84.65;99869.09;5051318;28;20068;-63
2021/12/08 07:53:08;;;;;;;76.18;29.83;;;;;;;1.20;84.70;99867.91;5050934;28;20041;-63
2021/12/08 07:55:38;;;;;;;85.57;31.85;;;;;;;1.17;84.74;99878.34;5050895;28;20091;-63
2021/12/08 07:58:05;;;;;;;88.28;30.98;;;;;;;1.14;85.03;99878.44;5051100;28;20037;-63
2021/12/08 08:00:39;;;;;;;75.72;28.70;;;;;;;1.11;84.90;99881.91;5046557;28;20130;-64
2021/12/08 08:03:09;;;;;;;68.85;27.75;;;;;;;0.88;85.96;99879.97;5042997;28;20046;-64
2021/12/08 08:05:37;;;;;;;83.00;30.30;;;;;;;1.24;84.91;99864.38;5045064;28;20114;-65
2021/12/08 08:08:07;;;;;;;76.10;31.38;;;;;;;1.35;84.16;99862.31;5043978;28;20130;-65
2021/12/08 08:10:38;;;;;;;84.28;29.50;;;;;;;1.50;83.93;99867.06;5034138;28;20046;-65
2021/12/08 08:13:07;;;;;;;;;;;;;;;1.71;83.12;99863.84;5039412;28;20049;-65
2021/12/08 08:15:40;;;;;;;74.25;27.58;;;;;;;1.57;83.72;99853.06;5048331;28;19921;-65
2021/12/08 08:18:11;;;;;;;83.18;29.35;;;;;;;1.53;83.86;99851.47;5043986;28;20061;-64
2021/12/08 08:20:44;;;;;;;90.85;31.05;;;;;;;0.96;85.82;99859.13;5038492;28;20045;-67
2021/12/08 08:23:11;;;;;;;75.45;28.52;;;;;;;1.39;85.00;99853.59;5049567;28;20382;-64
2021/12/08 08:25:41;;;;;;;73.82;29.65;;;;;;;1.59;83.44;99856.44;5037684;28;20091;-64
2021/12/08 08:28:08;;;;;;;82.90;32.13;;;;;;;1.74;83.08;99858.56;5057291;28;20075;-64
2021/12/08 08:30:38;;;;;;;69.05;28.60;;;;;;;1.50;83.87;99874.81;5050871;28;20041;-64
2021/12/08 08:33:06;;;;;;;72.53;30.23;;;;;;;1.45;84.06;99868.91;5050743;28;20409;-64
2021/12/08 08:35:37;;;;;;;73.78;28.67;;;;;;;1.75;83.01;99870.63;5049753;28;20866;-64
2021/12/08 08:38:07;;;;;;;78.47;26.83;;;;;;;1.59;83.45;99863.38;5050482;28;20037;-64
2021/12/08 08:40:37;;;;;;;66.45;27.83;;;;;;;1.77;82.74;99863.69;5050613;28;20147;-65
2021/12/08 08:43:06;;;;;;;63.60;24.92;;;;;;;2.03;81.94;99859.47;5050415;28;20048;-65
2021/12/08 08:45:37;;;;;;;60.88;23.77;;;;;;;1.61;82.25;99859.84;5041458;28;20496;-65
2021/12/08 08:48:08;;;;;;;70.30;27.65;;;;;;;1.96;81.33;99859.63;5046312;28;20459;-65
2021/12/08 08:50:41;;;;;;;61.63;23.58;;;;;;;1.59;82.88;99855.63;5036316;28;20076;-65
2021/12/08 08:53:09;;;;;;;71.60;29.30;;;;;;;1.76;81.84;99855.97;5049537;28;20075;-64
2021/12/08 08:55:39;;;;;;;73.45;27.83;;;;;;;1.73;82.13;99851.75;5049522;28;20100;-64
2021/12/08 08:58:08;;;;;;;76.13;26.48;;;;;;;1.86;81.37;99854.78;5049451;28;20045;-64
2021/12/08 09:00:39;;;;;;;63.92;26.52;;;;;;;1.81;80.89;99873.00;5049894;28;20049;-64
2021/12/08 09:03:08;;;;;;;72.70;30.73;;;;;;;1.51;81.79;99889.44;5030220;28;20486;-64
2021/12/08 09:05:43;;;;;;;71.57;28.60;;;;;;;1.63;82.05;99889.06;5030104;28;20060;-65
2021/12/08 09:08:11;;;;;;;68.50;28.05;;;;;;;1.87;81.36;99888.34;5029527;28;20478;-65
2021/12/08 09:10:42;;;;;;;70.57;27.33;;;;;;;1.91;80.77;99878.75;5030012;28;20413;-65
2021/12/08 09:13:15;;;;;;;63.80;26.30;;;;;;;2.02;80.46;99876.69;5029990;28;20493;-65
2021/12/08 09:15:45;;;;;;;64.03;27.02;;;;;;;2.35;79.40;99878.22;5045471;28;20500;-65
2021/12/08 09:18:15;;;;;;;66.07;26.83;;;;;;;2.35;78.77;99886.00;5049333;28;20562;-65
2021/12/08 09:20:54;;;;;;;67.45;24.92;;;;;;;2.52;78.47;99885.44;5049504;28;20102;-65
2021/12/08 09:23:26;;;;;;;58.30;23.17;;;;;;;2.79;77.94;99883.69;5049274;28;20507;-65
2021/12/08 09:25:57;;;;;;;55.35;24.27;;;;;;;2.97;77.07;99872.72;5049438;28;20048;-65
2021/12/08 09:28:28;;;;;;;;;;;;;;;2.94;77.28;99858.13;5049375;28;20069;-65
2021/12/08 09:31:02;;;;;;;60.50;23.05;;;;;;;2.65;78.21;99868.63;5049555;28;20398;-65
2021/12/08 09:33:37;;;;;;;52.78;23.13;;;;;;;2.44;78.17;99858.97;5045731;28;20093;-65
2021/12/08 09:36:11;;;;;;;59.58;22.13;;;;;;;2.72;78.27;99844.22;5041126;28;20041;-66
2021/12/08 09:38:41;;;;;;;55.53;21.80;;;;;;;2.34;79.58;99857.56;5040673;28;20120;-66
2021/12/08 09:41:14;;;;;;;55.45;24.33;;;;;;;2.21;80.21;99843.34;5049364;28;20049;-66
2021/12/08 09:43:44;;;;;;;47.67;20.13;;;;;;;2.21;79.87;99846.78;5049437;28;20456;-66
2021/12/08 09:46:13;;;;;;;59.37;24.97;;;;;;;2.07;80.69;99845.53;5052581;28;20488;-66
2021/12/08 09:48:42;;;;;;;68.47;24.60;;;;;;;1.98;80.22;99854.41;5033215;28;20846;-66
2021/12/08 09:51:13;;;;;;;65.45;24.58;;;;;;;1.63;81.72;99860.63;5037306;28;20701;-67
2021/12/08 09:53:42;;;;;;;51.75;20.00;;;;;;;1.71;81.96;99865.56;5037081;28;20072;-67
2021/12/08 09:56:10;;;;;;;66.57;27.00;;;;;;;1.61;82.34;99846.06;5035961;28;20058;-67
2021/12/08 09:58:37;;;;;;;60.38;22.77;;;;;;;1.60;82.81;99852.13;5048106;28;20053;-67
2021/12/08 10:01:04;;;;;;;65.40;24.95;;;;;;;1.74;82.39;99840.50;5029652;28;20049;-67
2021/12/08 10:03:32;;;;;;;60.58;25.38;;;;;;;1.84;81.30;99831.59;5029193;28;20038;-67
2021/12/08 10:05:59;;;;;;;60.10;25.45;;;;;;;1.84;81.10;99816.06;5049010;28;20128;-68
2021/12/08 10:08:28;;;;;;;65.32;23.77;;;;;;;1.73;81.66;99819.88;5049163;28;20339;-68
2021/12/08 10:10:55;;;;;;;58.47;24.33;;;;;;;1.92;81.29;99832.16;5049069;28;20497;-69
2021/12/08 10:13:21;;;;;;;61.15;23.13;;;;;;;1.71;81.13;99832.84;5048957;28;20073;-68
2021/12/08 10:15:48;;;;;;;65.75;24.25;;;;;;;1.79;81.07;99815.38;5049249;28;20126;-69
2021/12/08 10:18:15;;;;;;;65.28;24.55;;;;;;;2.01;80.85;99814.69;5038581;28;20046;-68
2021/12/08 10:20:46;;;;;;;63.08;26.10;;;;;;;2.26;79.81;99826.78;5036968;28;20452;-68
2021/12/08 10:23:21;;;;;;;61.85;24.60;;;;;;;1.92;80.06;99829.59;5049204;28;20055;-68
2021/12/08 10:25:52;;;;;;;65.28;24.58;;;;;;;1.68;82.14;99848.44;5046679;28;20044;-67
2021/12/08 10:28:21;;;;;;;56.92;24.20;;;;;;;1.61;81.66;99852.09;5034466;28;20567;-67
2021/12/08 10:30:52;;;;;;;65.80;25.90;;;;;;;2.04;80.74;99846.47;5048793;28;20119;-68
2021/12/08 10:33:52;;;;;;;57.53;25.40;;;;;;;2.21;79.38;99838.19;5038530;28;20510;-67
2021/12/08 10:36:42;;;;;;;64.63;26.38;;;;;;;1.75;80.43;99836.16;5044165;28;20049;-67
2021/12/08 10:39:11;;;;;;;57.85;25.23;;;;;;;1.90;80.24;99833.97;5048363;28;20045;-68
2021/12/08 10:41:57;;;;;;;68.55;25.95;;;;;;;2.16;79.32;99827.13;5041305;28;20072;-67
2021/12/08 10:44:26;;;;;;;66.75;26.65;;;;;;;2.00;80.06;99831.09;5052401;28;20045;-67
2021/12/08 10:46:57;;;;;;;59.75;24.38;;;;;;;1.95;80.49;99824.34;5054395;28;20045;-67
2021/12/08 10:54:22;;;;;;;;;;;;;;;2.05;80.10;99830.06;5037256;28;20055;-67
2021/12/08 10:54:52;;;;;;;62.63;25.30;;;;;;;2.13;79.97;99804.81;5028863;28;20425;-67
2021/12/08 10:57:24;;;;;;;62.63;25.15;;;;;;;2.02;80.84;99800.88;5036982;28;20095;-67
2021/12/08 10:59:57;;;;;;;63.28;25.20;;;;;;;2.24;80.13;99794.97;5043967;28;20064;-67
2021/12/08 11:02:46;;;;;;;54.67;25.33;;;;;;;2.18;80.21;99782.22;5045578;28;20455;-67
2021/12/08 11:05:37;;;;;;;59.05;20.13;;;;;;;1.82;81.23;99763.56;5047399;28;20037;-66
2021/12/08 11:08:06;;;;;;;57.20;25.02;;;;;;;2.27;79.81;99752.63;5052179;28;20554;-66
2021/12/08 11:10:36;;;;;;;61.40;23.35;;;;;;;2.13;79.94;99758.25;5052018;28;20477;-66
2021/12/08 11:13:07;;;;;;;56.15;23.55;;;;;;;2.01;80.48;99758.66;5052302;28;20037;-66
2021/12/08 11:15:34;;;;;;;53.83;23.23;;;;;;;2.32;79.27;99766.25;5052604;28;20045;-66
2021/12/08 11:18:14;;;;;;;59.35;24.20;;;;;;;2.34;79.78;99764.44;5050229;28;20048;-66
2021/12/08 11:20:43;;;;;;;53.45;24.08;;;;;;;2.52;79.01;99779.34;5031913;28;20091;-66
2021/12/08 11:23:11;;;;;;;54.85;22.27;;;;;;;2.23;79.17;99787.25;5031671;28;20045;-66
2021/12/08 11:25:40;;;;;;;55.65;23.17;;;;;;;2.28;79.71;99783.63;5044306;28;20045;-65
2021/12/08 11:28:23;;;;;;;57.65;24.20;;;;;;;2.02;80.91;99785.34;5050757;28;20049;-65
2021/12/08 11:30:51;;;;;;;50.15;22.05;;;;;;;1.99;80.71;99781.13;5051057;28;20048;-65
2021/12/08 11:33:21;;;;;;;55.55;22.65;;;;;;;2.30;79.77;99786.13;5050608;28;20076;-65
2021/12/08 11:35:48;;;;;;;55.15;23.65;;;;;;;2.55;79.15;99787.00;5051420;28;20041;-65
2021/12/08 11:38:25;;;;;;;54.35;23.15;;;;;;;2.64;78.95;99788.44;5051315;28;20045;-65
2021/12/08 11:40:52;;;;;;;52.42;22.23;;;;;;;2.68;78.41;99809.00;5050735;28;20045;-65
2021/12/08 11:43:30;;;;;;;45.55;20.33;;;;;;;2.65;78.80;99800.50;5050896;28;20493;-65
2021/12/08 11:46:12;;;;;;;49.30;20.95;;;;;;;2.99;76.88;99802.75;5042917;28;20049;-65
2021/12/08 11:48:51;;;;;;;51.55;21.98;;;;;;;2.74;78.62;99801.00;5041235;28;20505;-65
2021/12/08 11:51:18;;;;;;;45.67;20.08;;;;;;;2.46;78.67;99802.84;5045843;28;20049;-65
2021/12/08 11:53:45;;;;;;;52.75;21.30;;;;;;;2.29;79.25;99805.97;5047820;28;20534;-65
2021/12/08 11:56:30;;;;;;;59.00;23.27;;;;;;;2.50;79.68;99794.09;5035469;28;20114;-65
2021/12/08 11:58:58;;;;;;;46.90;20.92;;;;;;;2.04;79.73;99784.41;5031153;28;20496;-65
2021/12/08 12:01:24;;;;;;;53.88;22.77;;;;;;;2.39;80.08;99776.34;5031208;28;20049;-65
2021/12/08 12:03:51;;;;;;;45.40;21.23;;;;;;;2.49;79.05;99794.13;5035603;28;20048;-65
2021/12/08 12:06:17;;;;;;;57.15;23.67;;;;;;;2.49;79.28;99797.56;5055525;28;20061;-64
2021/12/08 12:08:46;;;;;;;52.60;22.63;;;;;;;2.34;79.22;99808.44;5057350;28;20048;-64
2021/12/08 12:11:13;;;;;;;55.72;22.00;;;;;;;2.10;80.57;99804.06;5060844;28;20098;-64
2021/12/08 12:13:40;;;;;;;56.58;23.80;;;;;;;2.13;80.39;99796.19;5042633;28;20049;-64